Terminal Aerodrome Forecast
Issued by NWS

Home | Current Version | Previous Version | Text Only | Print | Product List | Glossary On
Versions: 1 2 3 4 5 6 7 8 9 10 11 12 13 14 15 16 17 18
000
FTUS44 KMAF 162300
TAFCNM
TAF
KCNM 162330Z 1700/1724 25012G20KT P6SM SKC
     FM170100 22010KT P6SM FEW250
     FM170900 35014G22KT P6SM SCT250=

USA.gov is the U.S. government's official web portal to all federal, state and local government web resources and services.